EDT,Max TemperatureF,Mean TemperatureF,Min TemperatureF,Max Dew PointF,MeanDew PointF,Min DewpointF,Max Humidity, Mean Humidity, Min Humidity, Max Sea Level PressureIn, Mean Sea Level PressureIn, Min Sea Level PressureIn, Max VisibilityMiles, Mean VisibilityMiles, Min VisibilityMiles, Max Wind SpeedMPH, Mean Wind SpeedMPH, Max Gust SpeedMPH,PrecipitationIn, CloudCover, Events, WindDirDegrees
2013-6-1,74,69,64,65,60,56,94,73,56,29.79,29.72,29.65,10,10,10,17,8,24,0.02,7,Rain,202
2013-6-2,64,52,40,63,46,36,96,81,61,30.02,29.84,29.63,10,9,2,15,8,23,0.01,7,Rain,306
2013-6-3,65,50,36,43,37,30,99,62,27,30.11,30.05,30.01,10,10,10,16,3,24,0.00,1,,288
2013-6-4,68,54,41,42,39,35,96,58,34,30.21,30.17,30.12,10,10,10,13,2,20,0.00,2,,7
2013-6-5,62,58,53,48,39,31,70,52,32,30.19,30.12,30.05,10,10,5,14,4,23,0.05,6,Rain,94
2013-6-6,67,60,53,46,41,36,70,52,32,30.05,29.96,29.91,10,10,10,14,5,22,0.00,5,Rain,89
2013-6-7,71,58,45,48,41,31,93,56,23,29.97,29.92,29.87,10,10,7,16,4,22,0.00,1,,43
2013-6-8,70,58,45,50,48,44,96,69,42,30.07,29.99,29.93,10,10,10,9,1,18,0.00,1,Rain,240
2013-6-9,74,61,48,57,52,47,96,67,47,30.09,30.04,29.95,10,10,10,18,5,25,0.00,4,,113
2013-6-10,70,65,60,63,57,50,96,78,58,29.94,29.84,29.78,10,9,4,10,5,17,0.00,7,Rain,86
2013-6-11,78,66,55,62,59,54,99,77,48,29.91,29.86,29.82,10,7,0,15,3,22,0.00,5,Fog,264
2013-6-12,77,66,55,68,60,54,97,84,52,29.92,29.84,29.69,10,7,3,10,2,16,0.16,3,Rain,221
2013-6-13,71,64,55,64,54,49,96,71,50,30.00,29.84,29.70,10,9,4,16,7,25,0.16,3,Rain,344
2013-6-14,77,63,49,50,44,34,95,56,21,30.13,30.06,30.01,10,10,10,10,4,22,0.00,0,,334
2013-6-15,74,61,48,58,52,42,93,68,46,30.06,29.99,29.85,10,10,10,13,4,24,0.00,3,,220
2013-6-16,79,70,62,63,57,45,96,69,30,29.89,29.84,29.77,10,9,3,20,7,29,0.49,5,Rain,275
2013-6-17,81,68,55,56,53,44,92,60,32,29.98,29.90,29.86,10,10,10,14,3,22,0.00,3,,306
2013-6-18,70,62,54,52,44,36,88,54,29,30.12,30.05,29.97,10,10,3,15,6,20,0.00,2,,76
2013-6-19,72,58,43,47,40,32,93,54,24,30.19,30.15,30.10,10,10,5,10,2,17,0.00,0,,169
2013-6-20,80,63,46,56,48,43,92,60,29,30.21,30.16,30.13,10,10,7,9,2,,0.00,0,,235
2013-6-21,82,68,54,61,57,52,93,66,43,30.18,30.10,29.98,10,10,7,20,4,31,0.00,2,,205
2013-6-22,83,74,66,64,62,59,90,68,47,30.10,30.04,29.97,10,10,10,14,5,20,0.00,4,,256
2013-6-23,85,74,63,67,61,55,96,68,36,30.05,29.99,29.93,10,9,4,17,5,28,0.00,1,,214
2013-6-24,83,74,65,66,62,56,92,66,41,30.03,29.98,29.89,10,10,7,15,7,23,0.00,2,,231
2013-6-25,76,70,64,66,63,60,95,79,59,29.94,29.89,29.83,10,10,5,15,4,20,0.03,4,Rain,243
2013-6-26,84,71,58,68,63,58,98,82,47,29.87,29.81,29.77,10,7,0,18,2,30,0.13,5,Fog-Rain,207
2013-6-27,83,73,63,67,63,58,97,75,44,29.78,29.74,29.68,10,9,5,15,5,21,0.01,3,Rain,285
2013-6-28,79,70,61,64,60,52,96,78,41,29.68,29.61,29.55,10,8,0,13,3,29,0.56,5,Fog-Rain,312
2013-6-29,71,65,59,62,58,52,96,81,50,29.80,29.67,29.60,10,8,2,13,3,21,0.04,7,Rain,34
2013-6-30,78,68,59,57,49,41,86,54,27,30.03,29.90,29.80,10,10,10,13,3,17,0.00,3,,21